Time;durP1;ratioP1;P1;durP2;ratioP2;P2;SDS_P1;SDS_P2;PMS_P1;PMS_P2;Temp;Humidity;BMP_temperature;BMP_pressure;BME280_temperature;BME280_humidity;BME280_pressure;Samples;Min_cycle;Max_cycle;Signal;HPM_P1;HPM_P2
2023/06/16 00:00:12;;;;;;;11.27;6.97;;;16.00;99.90;;;;;;5102793;27;20582;-84
2023/06/16 00:02:41;;;;;;;9.75;6.38;;;16.10;99.90;;;;;;5119011;27;20190;-84
2023/06/16 00:05:10;;;;;;;9.35;5.70;;;16.10;99.90;;;;;;5119237;27;20491;-84
2023/06/16 00:07:39;;;;;;;11.95;6.20;;;16.10;99.90;;;;;;5117709;27;20035;-84
2023/06/16 00:10:07;;;;;;;10.80;6.32;;;16.20;99.90;;;;;;5118758;27;20050;-84
2023/06/16 00:12:37;;;;;;;9.70;6.93;;;16.20;99.90;;;;;;5132034;28;20039;-84
2023/06/16 00:15:04;;;;;;;12.95;7.93;;;16.10;99.90;;;;;;5082631;28;20044;-84
2023/06/16 00:17:30;;;;;;;10.35;7.93;;;16.10;99.90;;;;;;5082311;28;20036;-85
2023/06/16 00:19:57;;;;;;;12.57;8.60;;;16.10;99.90;;;;;;5082271;28;20035;-84
2023/06/16 00:22:28;;;;;;;12.68;8.07;;;16.00;99.90;;;;;;5115854;28;20051;-84
2023/06/16 00:24:54;;;;;;;11.98;7.72;;;16.00;99.90;;;;;;5132071;28;20101;-84
2023/06/16 00:27:24;;;;;;;11.63;6.28;;;16.00;99.90;;;;;;5108806;27;20043;-84
2023/06/16 00:29:50;;;;;;;9.18;5.32;;;15.90;99.90;;;;;;5102959;27;20095;-84
2023/06/16 00:32:17;;;;;;;9.32;5.40;;;15.90;99.90;;;;;;5135364;27;20044;-84
2023/06/16 00:34:45;;;;;;;8.90;5.40;;;15.80;99.90;;;;;;5101988;27;20530;-84
2023/06/16 00:37:12;;;;;;;8.68;4.80;;;15.80;99.90;;;;;;5130238;28;20034;-84
2023/06/16 00:39:38;;;;;;;6.75;4.43;;;15.80;99.90;;;;;;5081543;28;20480;-84
2023/06/16 00:42:06;;;;;;;5.55;3.88;;;15.70;99.90;;;;;;5081665;28;20093;-84
2023/06/16 00:44:32;;;;;;;6.25;4.32;;;15.70;99.90;;;;;;5081998;28;20511;-84
2023/06/16 00:46:59;;;;;;;5.35;3.60;;;15.60;99.90;;;;;;5097937;28;20043;-84
2023/06/16 00:49:26;;;;;;;8.82;4.03;;;15.60;99.90;;;;;;5098109;28;20056;-84
2023/06/16 00:51:53;;;;;;;6.40;3.80;;;15.60;99.90;;;;;;5097629;28;20579;-84
2023/06/16 00:54:21;;;;;;;7.10;4.35;;;15.50;99.90;;;;;;5094224;28;20551;-84
2023/06/16 00:56:48;;;;;;;7.03;4.30;;;15.50;99.90;;;;;;5094725;28;20051;-84
2023/06/16 00:59:14;;;;;;;9.30;4.60;;;15.50;99.90;;;;;;5077803;28;20040;-83
2023/06/16 01:01:41;;;;;;;8.10;4.68;;;15.40;99.90;;;;;;5077509;28;20511;-84
2023/06/16 01:04:09;;;;;;;7.55;4.85;;;15.40;99.90;;;;;;5077064;28;20040;-84
2023/06/16 01:06:50;;;;;;;8.88;5.57;;;15.40;99.90;;;;;;5110383;28;20182;-83
2023/06/16 01:09:30;;;;;;;13.95;7.20;;;15.40;99.90;;;;;;5111255;28;20048;-83
2023/06/16 01:12:23;;;;;;;11.77;7.65;;;15.40;99.90;;;;;;5110276;28;20040;-84
2023/06/16 01:14:59;;;;;;;11.05;7.05;;;15.40;99.90;;;;;;5110653;28;20040;-83
2023/06/16 01:17:28;;;;;;;;;;;15.40;99.90;;;;;;5111103;28;20119;-83
2023/06/16 01:20:11;;;;;;;10.15;6.43;;;15.30;99.90;;;;;;5110642;28;19922;-83
2023/06/16 01:22:54;;;;;;;9.15;5.85;;;15.30;99.90;;;;;;5111186;28;20369;-84
2023/06/16 01:25:22;;;;;;;8.00;5.25;;;15.20;99.90;;;;;;5110569;28;20075;-84
2023/06/16 01:27:54;;;;;;;7.07;4.75;;;15.20;99.90;;;;;;5110074;28;20040;-84
2023/06/16 01:30:24;;;;;;;7.40;4.75;;;15.10;99.90;;;;;;5110209;28;20496;-83
2023/06/16 01:32:58;;;;;;;9.45;4.80;;;15.10;99.90;;;;;;5126962;28;20071;-83
2023/06/16 01:35:26;;;;;;;8.10;4.68;;;15.10;99.90;;;;;;5127166;28;20040;-83
2023/06/16 01:37:54;;;;;;;8.30;4.53;;;15.00;99.90;;;;;;5077258;28;20400;-83
2023/06/16 01:40:23;;;;;;;6.53;4.25;;;15.00;99.90;;;;;;5093695;28;20036;-84
2023/06/16 01:42:51;;;;;;;8.63;4.03;;;15.00;99.90;;;;;;5089951;28;20178;-84
2023/06/16 01:45:19;;;;;;;8.63;4.18;;;15.00;99.90;;;;;;5090040;28;20085;-82
2023/06/16 01:47:46;;;;;;;5.93;4.22;;;15.00;99.90;;;;;;5093109;28;20518;-84
2023/06/16 01:50:14;;;;;;;7.35;4.47;;;15.00;99.90;;;;;;5110176;28;20496;-83
2023/06/16 01:52:41;;;;;;;8.52;4.20;;;15.00;99.90;;;;;;5093675;28;20127;-83
2023/06/16 01:55:08;;;;;;;6.55;4.50;;;15.00;99.90;;;;;;5108688;28;20184;-83
2023/06/16 01:57:36;;;;;;;5.40;3.85;;;14.90;99.90;;;;;;5097356;28;20044;-83
2023/06/16 02:00:16;;;;;;;10.70;4.57;;;14.90;99.90;;;;;;5147390;28;20075;-83
2023/06/16 02:02:50;;;;;;;6.10;4.22;;;14.80;99.90;;;;;;5130311;28;20075;-83
2023/06/16 02:05:23;;;;;;;6.53;4.28;;;14.70;99.90;;;;;;5130524;28;20028;-84
2023/06/16 02:07:53;;;;;;;7.03;4.50;;;14.70;99.90;;;;;;5129869;28;20084;-84
2023/06/16 02:10:23;;;;;;;6.50;4.10;;;14.60;99.90;;;;;;5130056;28;20488;-84
2023/06/16 02:12:50;;;;;;;7.57;4.65;;;14.60;99.90;;;;;;5113418;28;20036;-84
2023/06/16 02:15:21;;;;;;;8.48;5.13;;;14.60;99.90;;;;;;5113521;28;20075;-84
2023/06/16 02:17:50;;;;;;;9.90;5.15;;;14.60;99.90;;;;;;5113673;28;20391;-83
2023/06/16 02:20:17;;;;;;;9.60;5.22;;;14.50;99.90;;;;;;5097020;28;20040;-84
2023/06/16 02:22:44;;;;;;;8.18;5.13;;;14.50;99.90;;;;;;5113686;28;20035;-83
2023/06/16 02:25:10;;;;;;;8.00;4.95;;;14.50;99.90;;;;;;5130015;28;20032;-83
2023/06/16 02:27:37;;;;;;;8.15;5.57;;;14.50;99.90;;;;;;5096865;28;20031;-83
2023/06/16 02:30:04;;;;;;;7.25;4.95;;;14.40;99.90;;;;;;5096589;28;20036;-83
2023/06/16 02:32:31;;;;;;;8.63;4.80;;;14.40;99.90;;;;;;5096451;28;20040;-84
2023/06/16 02:34:58;;;;;;;10.07;4.72;;;14.40;99.90;;;;;;5096362;28;20502;-84
2023/06/16 02:37:27;;;;;;;7.13;4.80;;;14.40;99.90;;;;;;5096429;28;20502;-84
2023/06/16 02:39:53;;;;;;;7.32;4.90;;;14.40;99.90;;;;;;5129665;28;20042;-84
2023/06/16 02:42:20;;;;;;;7.43;4.88;;;14.30;99.90;;;;;;5096371;28;20035;-83
2023/06/16 02:44:47;;;;;;;7.65;5.07;;;14.30;99.90;;;;;;5112978;28;20032;-84
2023/06/16 02:47:14;;;;;;;8.30;5.32;;;14.30;99.90;;;;;;5129633;28;20439;-84
2023/06/16 02:49:42;;;;;;;9.95;5.63;;;14.30;99.90;;;;;;5112665;28;20044;-84
2023/06/16 02:52:11;;;;;;;8.90;5.60;;;14.30;99.90;;;;;;5112769;28;20424;-84
2023/06/16 02:54:40;;;;;;;7.18;5.15;;;14.30;99.90;;;;;;5112769;28;20048;-84
2023/06/16 02:57:07;;;;;;;9.27;5.75;;;14.30;99.90;;;;;;5145785;28;20089;-84
2023/06/16 02:59:35;;;;;;;8.45;5.35;;;14.30;99.90;;;;;;5129442;28;20038;-83
2023/06/16 03:02:02;;;;;;;9.95;5.88;;;14.30;99.90;;;;;;5128991;28;20035;-84
2023/06/16 03:04:28;;;;;;;9.05;5.60;;;14.30;99.90;;;;;;5146293;28;20047;-84
2023/06/16 03:06:57;;;;;;;7.82;5.43;;;14.30;99.90;;;;;;5112057;28;20050;-84
2023/06/16 03:09:27;;;;;;;9.27;5.80;;;14.40;99.90;;;;;;5129124;28;20044;-84
2023/06/16 03:11:55;;;;;;;7.95;5.72;;;14.40;99.90;;;;;;5112658;28;20065;-83
2023/06/16 03:14:22;;;;;;;8.35;5.53;;;14.50;99.90;;;;;;5096084;28;20036;-82
2023/06/16 03:16:48;;;;;;;10.38;5.45;;;14.50;99.90;;;;;;5095920;28;20097;-84
2023/06/16 03:19:16;;;;;;;8.90;5.43;;;14.50;99.90;;;;;;5095543;28;20070;-84
2023/06/16 03:21:44;;;;;;;11.27;5.05;;;14.60;99.90;;;;;;5112777;28;20036;-84
2023/06/16 03:24:18;;;;;;;11.88;6.13;;;14.60;99.90;;;;;;5129224;28;20050;-84
2023/06/16 03:26:46;;;;;;;10.90;5.15;;;14.50;99.90;;;;;;5146800;28;20108;-84
2023/06/16 03:29:13;;;;;;;9.00;5.63;;;14.60;99.90;;;;;;5114936;28;20042;-84
2023/06/16 03:31:40;;;;;;;8.82;5.78;;;14.50;99.90;;;;;;5133040;28;20740;-84
2023/06/16 03:34:07;;;;;;;9.45;6.13;;;14.50;99.90;;;;;;5099035;28;20092;-83
2023/06/16 03:36:36;;;;;;;9.05;6.43;;;14.50;99.90;;;;;;5133020;28;20031;-83
2023/06/16 03:39:03;;;;;;;9.70;5.85;;;14.50;99.90;;;;;;5116130;28;20035;-83
2023/06/16 03:41:30;;;;;;;10.73;6.25;;;14.40;99.90;;;;;;5116152;28;20631;-83
2023/06/16 03:43:57;;;;;;;15.02;7.22;;;14.40;99.90;;;;;;5116193;28;20089;-83
2023/06/16 03:46:23;;;;;;;8.50;6.28;;;14.50;99.90;;;;;;5099238;28;20066;-83
2023/06/16 03:48:50;;;;;;;9.13;6.40;;;14.50;99.90;;;;;;5115883;28;20126;-83
2023/06/16 03:51:17;;;;;;;9.23;6.30;;;14.50;99.90;;;;;;5098755;28;20035;-83
2023/06/16 03:53:44;;;;;;;10.43;6.55;;;14.50;99.90;;;;;;5101341;27;20063;-83
2023/06/16 03:56:10;;;;;;;8.63;5.57;;;14.50;99.90;;;;;;5135763;27;20053;-83
2023/06/16 03:58:37;;;;;;;9.18;5.70;;;14.40;99.90;;;;;;5119354;27;20077;-83
2023/06/16 04:01:04;;;;;;;8.25;5.63;;;14.40;99.90;;;;;;5118771;27;20051;-84
2023/06/16 04:03:30;;;;;;;12.48;6.40;;;14.40;99.90;;;;;;5119149;27;20042;-82
2023/06/16 04:05:57;;;;;;;10.18;5.97;;;14.40;99.90;;;;;;5102271;27;20039;-83
2023/06/16 04:08:24;;;;;;;11.30;6.90;;;14.30;99.90;;;;;;5102218;27;20042;-84
2023/06/16 04:10:57;;;;;;;10.88;7.93;;;14.30;99.90;;;;;;5118847;27;20043;-83
2023/06/16 04:13:24;;;;;;;11.48;7.30;;;14.30;99.90;;;;;;5103593;27;20035;-83
2023/06/16 04:15:51;;;;;;;12.05;7.68;;;14.40;99.90;;;;;;5118996;27;20089;-83
2023/06/16 04:18:18;;;;;;;11.90;8.27;;;14.40;99.90;;;;;;5118543;27;20062;-83
2023/06/16 04:20:44;;;;;;;11.85;7.95;;;14.40;99.90;;;;;;5119204;27;20092;-84
2023/06/16 04:23:11;;;;;;;11.27;6.97;;;14.40;99.90;;;;;;5102118;27;20035;-84
2023/06/16 04:25:38;;;;;;;11.05;8.00;;;14.40;99.90;;;;;;5118751;27;20071;-83
2023/06/16 04:28:05;;;;;;;10.50;7.60;;;14.40;99.90;;;;;;5102098;27;20134;-83
2023/06/16 04:30:36;;;;;;;13.75;8.52;;;14.50;99.90;;;;;;5118562;27;20046;-83
2023/06/16 04:33:03;;;;;;;13.07;8.55;;;14.50;99.90;;;;;;5118964;27;20461;-83
2023/06/16 04:35:31;;;;;;;16.98;10.20;;;14.50;99.90;;;;;;5101456;27;20122;-83
2023/06/16 04:37:58;;;;;;;13.07;9.43;;;14.60;99.90;;;;;;5118569;27;20035;-83
2023/06/16 04:40:27;;;;;;;13.40;9.15;;;14.60;99.90;;;;;;5133716;27;20043;-83
2023/06/16 04:42:53;;;;;;;14.25;9.82;;;14.60;99.90;;;;;;5135403;27;20038;-83
2023/06/16 04:45:22;;;;;;;17.02;11.05;;;14.70;99.90;;;;;;5101805;27;20035;-84
2023/06/16 04:47:50;;;;;;;15.35;10.93;;;14.80;99.90;;;;;;5118767;27;20130;-83
2023/06/16 04:50:17;;;;;;;17.50;11.25;;;14.80;99.90;;;;;;5118027;27;20059;-83
2023/06/16 04:52:47;;;;;;;17.88;11.40;;;14.90;99.90;;;;;;5118496;27;20078;-83
2023/06/16 04:55:17;;;;;;;16.38;12.70;;;15.00;99.90;;;;;;5151691;27;20047;-84
2023/06/16 04:57:44;;;;;;;21.73;12.65;;;15.10;99.90;;;;;;5118891;27;20050;-83
2023/06/16 05:00:12;;;;;;;15.65;11.88;;;15.20;99.90;;;;;;5135075;27;20064;-84
2023/06/16 05:02:40;;;;;;;17.25;11.77;;;15.30;99.90;;;;;;5118263;27;20035;-83
2023/06/16 05:05:07;;;;;;;20.92;12.57;;;15.40;99.90;;;;;;5152197;27;20049;-83
2023/06/16 05:07:34;;;;;;;18.27;12.73;;;15.40;99.90;;;;;;5117741;27;20054;-83
2023/06/16 05:10:02;;;;;;;19.40;12.18;;;15.50;99.90;;;;;;5117807;27;20039;-84
2023/06/16 05:12:28;;;;;;;14.57;11.02;;;15.60;99.90;;;;;;5117308;27;20043;-83
2023/06/16 05:14:55;;;;;;;15.55;11.90;;;15.70;99.90;;;;;;5117804;27;20092;-83
2023/06/16 05:17:22;;;;;;;17.52;12.05;;;15.70;99.90;;;;;;5117333;27;20402;-82
2023/06/16 05:19:49;;;;;;;15.75;10.85;;;15.80;99.90;;;;;;5134354;27;20035;-83
2023/06/16 05:22:15;;;;;;;15.50;11.43;;;15.90;99.90;;;;;;5151294;27;20043;-84
2023/06/16 05:24:42;;;;;;;19.45;12.38;;;15.90;99.90;;;;;;5117405;27;20035;-83
2023/06/16 05:27:09;;;;;;;16.63;10.90;;;16.00;99.90;;;;;;5117503;27;20050;-83
2023/06/16 05:29:35;;;;;;;18.10;12.05;;;16.00;99.90;;;;;;5116847;27;20067;-83
2023/06/16 05:32:05;;;;;;;16.77;11.55;;;16.10;99.90;;;;;;5117208;27;20043;-83
2023/06/16 05:34:32;;;;;;;16.23;11.50;;;16.30;99.90;;;;;;5117534;27;20032;-83
2023/06/16 05:36:59;;;;;;;17.02;11.10;;;16.20;99.90;;;;;;5134478;27;20166;-83
2023/06/16 05:39:26;;;;;;;13.63;10.55;;;16.20;99.90;;;;;;5134030;27;20082;-83
2023/06/16 05:41:52;;;;;;;16.33;10.98;;;16.30;99.90;;;;;;5117253;27;20122;-83
2023/06/16 05:44:19;;;;;;;14.85;11.02;;;16.40;99.90;;;;;;5116444;27;20100;-83
2023/06/16 05:46:46;;;;;;;14.65;10.63;;;16.50;99.90;;;;;;5117108;27;20490;-83
2023/06/16 05:49:12;;;;;;;17.15;10.77;;;16.60;99.90;;;;;;5117030;27;20462;-83
2023/06/16 05:51:39;;;;;;;15.48;10.35;;;16.60;99.90;;;;;;5116331;27;20130;-83
2023/06/16 05:54:06;;;;;;;15.38;9.90;;;16.70;99.90;;;;;;5116929;27;20047;-83
2023/06/16 05:56:32;;;;;;;13.90;10.25;;;16.80;99.90;;;;;;5116557;27;20096;-83
2023/06/16 05:58:59;;;;;;;13.93;9.18;;;16.80;99.90;;;;;;5116730;27;20039;-83
2023/06/16 06:01:26;;;;;;;11.60;9.32;;;16.90;99.90;;;;;;5134080;27;20043;-83
2023/06/16 06:03:53;;;;;;;12.45;9.45;;;16.90;99.90;;;;;;5100331;27;20035;-82
2023/06/16 06:06:19;;;;;;;15.02;9.57;;;17.10;99.90;;;;;;5116374;27;20043;-84
2023/06/16 06:08:46;;;;;;;14.55;9.00;;;17.10;99.90;;;;;;5099859;27;20478;-82
2023/06/16 06:11:13;;;;;;;11.27;8.35;;;17.20;99.90;;;;;;5084759;28;20515;-83
2023/06/16 06:13:39;;;;;;;12.75;8.70;;;17.30;99.90;;;;;;5096451;28;20547;-83
2023/06/16 06:16:06;;;;;;;12.40;8.95;;;17.40;99.90;;;;;;5113623;27;20035;-83
2023/06/16 06:18:33;;;;;;;12.13;8.75;;;17.40;99.90;;;;;;5099644;27;20043;-83
2023/06/16 06:21:00;;;;;;;13.60;9.02;;;17.50;99.90;;;;;;5116647;27;20046;-82
2023/06/16 06:23:27;;;;;;;12.55;9.30;;;17.50;99.90;;;;;;5099715;27;20042;-84
2023/06/16 06:25:54;;;;;;;15.30;9.30;;;17.60;99.90;;;;;;5150093;27;20712;-82
2023/06/16 06:28:23;;;;;;;13.77;9.77;;;17.70;99.90;;;;;;5116575;27;20039;-83
2023/06/16 06:30:49;;;;;;;11.55;8.55;;;17.80;99.90;;;;;;5117058;27;20042;-82
2023/06/16 06:33:16;;;;;;;15.25;9.57;;;17.80;99.90;;;;;;5099645;27;20035;-81
2023/06/16 06:35:43;;;;;;;12.57;9.10;;;17.90;99.90;;;;;;5098917;28;20055;-81
2023/06/16 06:38:10;;;;;;;15.27;8.88;;;18.00;99.90;;;;;;5091506;28;20046;-81
2023/06/16 06:40:37;;;;;;;13.32;8.52;;;18.10;99.90;;;;;;5133242;28;20042;-82
2023/06/16 06:43:04;;;;;;;11.77;8.52;;;18.20;99.90;;;;;;5082416;28;20043;-82
2023/06/16 06:45:31;;;;;;;14.15;9.13;;;18.30;99.90;;;;;;5093045;28;20041;-83
2023/06/16 06:47:57;;;;;;;12.30;8.20;;;18.40;99.90;;;;;;5082418;28;20399;-83
2023/06/16 06:50:28;;;;;;;9.73;7.00;;;18.60;99.90;;;;;;5096879;28;20043;-83
2023/06/16 06:52:54;;;;;;;10.65;6.95;;;18.70;99.90;;;;;;5086141;28;20054;-83
2023/06/16 06:55:21;;;;;;;13.35;7.07;;;18.80;99.90;;;;;;5101127;28;20047;-82
2023/06/16 06:57:49;;;;;;;11.52;6.63;;;18.90;99.90;;;;;;5109790;28;20499;-83
2023/06/16 07:00:16;;;;;;;12.13;7.38;;;19.00;99.90;;;;;;5099775;28;20399;-82
2023/06/16 07:02:43;;;;;;;9.73;6.65;;;19.20;99.90;;;;;;5123147;28;20567;-82
2023/06/16 07:05:10;;;;;;;9.80;6.70;;;19.30;99.90;;;;;;5100302;28;20126;-84
2023/06/16 07:07:37;;;;;;;10.93;6.38;;;19.30;99.90;;;;;;5083040;28;20497;-83
2023/06/16 07:10:05;;;;;;;9.77;6.10;;;19.40;99.90;;;;;;5116463;27;20118;-84
2023/06/16 07:12:32;;;;;;;8.98;5.45;;;19.50;99.90;;;;;;5102969;27;20051;-84
2023/06/16 07:14:58;;;;;;;8.40;5.18;;;19.60;99.90;;;;;;5120049;27;20122;-83
2023/06/16 07:17:25;;;;;;;14.85;5.82;;;19.70;99.90;;;;;;5118125;27;20118;-83
2023/06/16 07:19:52;;;;;;;9.10;5.53;;;19.70;99.90;;;;;;5102990;27;20081;-83
2023/06/16 07:22:20;;;;;;;8.80;6.15;;;19.80;99.90;;;;;;5119986;27;20117;-83
2023/06/16 07:24:46;;;;;;;7.85;5.63;;;19.90;99.90;;;;;;5119580;27;20035;-83
2023/06/16 07:27:13;;;;;;;10.82;5.63;;;20.00;99.90;;;;;;5136296;27;20126;-84
2023/06/16 07:29:40;;;;;;;7.63;5.72;;;20.10;99.90;;;;;;5122157;27;20048;-83
2023/06/16 07:32:07;;;;;;;7.40;4.97;;;20.10;99.90;;;;;;5095342;27;20120;-82
2023/06/16 07:34:34;;;;;;;9.45;5.63;;;20.20;99.90;;;;;;5082819;28;20047;-83
2023/06/16 07:37:00;;;;;;;8.35;5.28;;;20.30;99.90;;;;;;5091002;27;20398;-82
2023/06/16 07:39:27;;;;;;;9.02;5.00;;;20.40;99.90;;;;;;5087292;27;20036;-82
2023/06/16 07:41:54;;;;;;;8.23;5.00;;;20.50;99.90;;;;;;5099865;27;20058;-82
2023/06/16 07:44:21;;;;;;;6.70;4.40;;;20.60;99.90;;;;;;5099269;28;20618;-82
2023/06/16 07:46:48;;;;;;;6.88;4.63;;;20.80;99.90;;;;;;5102377;27;20122;-83
2023/06/16 07:49:15;;;;;;;6.30;3.90;;;20.80;99.90;;;;;;5117275;27;20043;-82
2023/06/16 07:51:41;;;;;;;8.75;4.20;;;20.80;99.90;;;;;;5115169;27;20035;-83
2023/06/16 07:54:08;;;;;;;4.93;4.03;;;20.90;99.90;;;;;;5119312;27;20055;-83
2023/06/16 07:56:35;;;;;;;5.97;4.20;;;21.00;99.90;;;;;;5096938;27;20415;-85
2023/06/16 07:59:05;;;;;;;7.10;3.78;;;21.20;99.90;;;;;;5119518;27;20046;-84
2023/06/16 08:01:32;;;;;;;7.00;3.92;;;21.30;99.90;;;;;;5120326;27;20034;-83
2023/06/16 08:03:58;;;;;;;8.60;3.95;;;21.50;99.90;;;;;;5135317;27;20126;-81
2023/06/16 08:06:27;;;;;;;5.85;4.13;;;21.60;99.90;;;;;;5094766;28;20071;-82
2023/06/16 08:08:53;;;;;;;4.70;3.67;;;21.70;99.90;;;;;;5098648;28;20100;-82
2023/06/16 08:11:20;;;;;;;7.93;4.50;;;21.70;99.90;;;;;;5110548;27;20040;-82
2023/06/16 08:13:47;;;;;;;6.47;4.00;;;21.90;99.90;;;;;;5118518;27;20035;-84
2023/06/16 08:16:13;;;;;;;6.47;4.15;;;21.80;99.90;;;;;;5118421;27;20069;-83
2023/06/16 08:18:40;;;;;;;7.47;3.85;;;21.90;99.90;;;;;;5101820;27;20471;-83
2023/06/16 08:21:07;;;;;;;5.30;3.88;;;22.00;99.90;;;;;;5102165;27;20077;-83
2023/06/16 08:23:33;;;;;;;7.03;4.13;;;22.00;99.90;;;;;;5118303;27;20042;-82
2023/06/16 08:26:01;;;;;;;7.55;4.10;;;22.10;99.90;;;;;;5118420;27;20039;-82
2023/06/16 08:28:29;;;;;;;5.45;3.88;;;22.20;99.90;;;;;;5119240;27;20133;-82
2023/06/16 08:30:56;;;;;;;6.57;3.60;;;22.20;99.90;;;;;;5118618;27;20126;-81
2023/06/16 08:33:22;;;;;;;7.80;3.42;;;22.40;99.90;;;;;;5118217;27;20126;-82
2023/06/16 08:35:50;;;;;;;7.68;3.53;;;22.50;99.90;;;;;;5101279;27;20476;-81
2023/06/16 08:38:17;;;;;;;9.48;3.80;;;22.50;99.90;;;;;;5118331;27;20376;-82
2023/06/16 08:40:44;;;;;;;5.40;3.70;;;22.60;99.90;;;;;;5117810;27;20046;-82
2023/06/16 08:43:12;;;;;;;5.95;3.10;;;22.60;99.90;;;;;;5118486;27;20038;-82
2023/06/16 08:45:39;;;;;;;5.18;3.33;;;22.80;99.90;;;;;;5135092;27;20069;-83
2023/06/16 08:48:06;;;;;;;5.63;3.25;;;22.80;99.90;;;;;;5118520;27;20066;-82
2023/06/16 08:50:34;;;;;;;4.88;3.33;;;22.90;99.90;;;;;;5112329;27;20035;-83
2023/06/16 08:53:02;;;;;;;5.22;3.22;;;22.90;99.90;;;;;;5109732;28;20040;-82
2023/06/16 08:55:30;;;;;;;6.70;2.92;;;23.00;99.90;;;;;;5094589;28;20056;-83
2023/06/16 08:57:58;;;;;;;5.93;2.97;;;23.10;99.90;;;;;;5077267;28;20074;-82
2023/06/16 09:00:27;;;;;;;4.93;2.88;;;23.10;99.80;;;;;;5074600;28;20052;-82
2023/06/16 09:02:56;;;;;;;6.30;3.25;;;23.20;98.50;;;;;;5090452;28;20044;-82
2023/06/16 09:05:25;;;;;;;5.10;3.10;;;23.20;99.40;;;;;;5079686;28;20119;-81
2023/06/16 09:07:53;;;;;;;6.65;3.08;;;23.30;98.20;;;;;;5089899;28;20408;-81
2023/06/16 09:10:20;;;;;;;4.60;2.97;;;23.40;98.80;;;;;;5124005;28;20059;-83
2023/06/16 09:12:51;;;;;;;4.55;2.78;;;23.50;98.20;;;;;;5100965;28;20404;-82
2023/06/16 09:15:19;;;;;;;4.93;2.90;;;23.50;96.70;;;;;;5093528;28;20059;-81
2023/06/16 09:17:47;;;;;;;5.10;2.85;;;23.60;97.60;;;;;;5093849;28;20043;-82
2023/06/16 09:20:15;;;;;;;5.00;2.78;;;23.80;97.20;;;;;;5090305;28;20051;-82
2023/06/16 09:22:42;;;;;;;5.97;2.80;;;23.60;96.20;;;;;;5089976;28;20048;-83
2023/06/16 09:25:12;;;;;;;6.38;2.75;;;23.70;96.30;;;;;;5107511;28;20047;-82
2023/06/16 09:27:44;;;;;;;6.40;2.92;;;23.70;95.90;;;;;;5110264;28;20039;-81
2023/06/16 09:30:16;;;;;;;4.25;2.53;;;23.90;93.90;;;;;;5093826;28;20040;-82
2023/06/16 09:32:45;;;;;;;7.22;2.67;;;23.90;95.00;;;;;;5110075;28;20510;-83
2023/06/16 09:35:24;;;;;;;5.38;2.30;;;24.00;95.10;;;;;;5078949;28;20098;-82
2023/06/16 09:37:52;;;;;;;4.88;2.40;;;24.00;92.30;;;;;;5106128;28;20040;-83
2023/06/16 09:40:24;;;;;;;4.45;2.33;;;24.00;93.90;;;;;;5101367;28;20044;-82
2023/06/16 09:42:51;;;;;;;3.85;2.17;;;23.80;93.80;;;;;;5073573;28;20127;-82
2023/06/16 09:45:20;;;;;;;3.55;2.10;;;23.90;93.30;;;;;;5082288;28;20393;-82
2023/06/16 09:47:48;;;;;;;4.97;2.20;;;23.90;92.70;;;;;;5073141;28;20564;-83
2023/06/16 09:50:16;;;;;;;4.15;2.05;;;24.10;92.70;;;;;;5092464;28;20040;-82
2023/06/16 09:52:47;;;;;;;8.15;2.17;;;24.30;92.60;;;;;;5089519;28;20055;-82
2023/06/16 09:55:15;;;;;;;5.75;2.17;;;24.50;92.00;;;;;;5109120;28;20059;-82
2023/06/16 09:57:44;;;;;;;4.97;1.90;;;24.60;92.10;;;;;;5113305;28;20036;-82
2023/06/16 10:00:15;;;;;;;5.60;2.10;;;24.80;92.10;;;;;;5129732;28;20080;-82
2023/06/16 10:02:46;;;;;;;4.03;2.13;;;24.90;91.70;;;;;;5113399;28;20381;-81
2023/06/16 10:05:18;;;;;;;5.70;2.05;;;24.80;91.80;;;;;;5113657;28;20483;-82
2023/06/16 10:07:51;;;;;;;4.40;2.30;;;24.80;91.50;;;;;;5120749;28;20051;-80
2023/06/16 10:10:25;;;;;;;4.35;2.30;;;24.70;91.60;;;;;;5111878;28;20048;-80
2023/06/16 10:12:53;;;;;;;5.10;2.60;;;24.80;91.60;;;;;;5110093;28;20040;-80
2023/06/16 10:15:27;;;;;;;4.53;2.10;;;24.70;91.60;;;;;;5095149;28;20492;-80
2023/06/16 10:17:55;;;;;;;3.55;2.15;;;24.50;89.70;;;;;;5108738;28;20043;-80
2023/06/16 10:20:25;;;;;;;9.07;2.40;;;24.80;91.80;;;;;;5093162;28;20177;-79
2023/06/16 10:22:52;;;;;;;3.63;2.10;;;24.70;90.90;;;;;;5110015;28;20071;-81
2023/06/16 10:25:19;;;;;;;4.18;2.17;;;24.60;91.30;;;;;;5093515;28;20051;-79
2023/06/16 10:27:47;;;;;;;5.88;2.00;;;24.80;91.40;;;;;;5077261;28;20470;-79
2023/06/16 10:30:19;;;;;;;5.25;2.30;;;25.00;91.10;;;;;;5094172;28;20123;-80
2023/06/16 10:32:55;;;;;;;4.38;2.45;;;25.20;91.00;;;;;;5094826;28;20047;-79
2023/06/16 10:35:22;;;;;;;4.40;2.15;;;25.20;89.30;;;;;;5111728;28;20043;-80
2023/06/16 10:37:54;;;;;;;4.05;2.20;;;25.10;90.30;;;;;;5111526;28;20042;-82
2023/06/16 10:40:21;;;;;;;3.35;2.30;;;25.20;89.90;;;;;;5129306;28;20036;-82
2023/06/16 10:42:55;;;;;;;4.40;2.10;;;24.90;86.70;;;;;;5129753;28;20047;-82
2023/06/16 10:45:26;;;;;;;3.63;2.15;;;24.90;89.80;;;;;;5130232;28;20036;-82
2023/06/16 10:47:57;;;;;;;7.70;2.20;;;24.90;89.10;;;;;;5129715;28;20044;-82
2023/06/16 10:50:30;;;;;;;4.15;2.25;;;25.10;89.30;;;;;;5126456;28;20036;-82
2023/06/16 10:53:11;;;;;;;6.35;2.10;;;25.40;88.70;;;;;;5108962;28;20094;-81
2023/06/16 10:55:41;;;;;;;3.97;2.17;;;25.30;88.40;;;;;;5109238;28;20052;-80
2023/06/16 10:58:18;;;;;;;6.88;1.98;;;25.40;89.50;;;;;;5108713;28;20070;-80
2023/06/16 11:00:58;;;;;;;5.45;2.08;;;25.50;88.90;;;;;;5108751;28;20105;-81
2023/06/16 11:03:29;;;;;;;4.25;2.22;;;25.40;87.10;;;;;;5108810;28;20051;-80
2023/06/16 11:06:00;;;;;;;4.80;2.28;;;25.60;88.20;;;;;;5125878;28;20048;-81
2023/06/16 11:08:30;;;;;;;4.32;2.25;;;25.60;88.40;;;;;;5092963;28;20476;-81
2023/06/16 11:11:05;;;;;;;3.67;2.15;;;25.70;89.90;;;;;;5106791;28;20048;-81
2023/06/16 11:13:38;;;;;;;3.72;2.38;;;25.90;88.50;;;;;;5091699;28;20033;-81
2023/06/16 11:16:06;;;;;;;6.10;2.40;;;25.90;87.10;;;;;;5088539;28;20043;-81
2023/06/16 11:18:33;;;;;;;5.03;2.13;;;25.80;86.70;;;;;;5088598;28;20028;-82
2023/06/16 11:21:02;;;;;;;4.60;2.15;;;25.50;86.60;;;;;;5112394;28;20048;-81
2023/06/16 11:23:30;;;;;;;6.00;2.40;;;25.50;87.90;;;;;;5092713;28;20048;-81
2023/06/16 11:26:08;;;;;;;5.03;2.22;;;25.50;86.00;;;;;;5103382;28;20087;-81
2023/06/16 11:28:41;;;;;;;5.00;2.30;;;25.70;86.10;;;;;;5108669;28;20408;-81
2023/06/16 11:31:12;;;;;;;3.22;1.98;;;25.60;84.70;;;;;;5103460;28;20043;-82
2023/06/16 11:33:40;;;;;;;6.65;2.13;;;25.50;86.20;;;;;;5093620;28;20059;-82
2023/06/16 11:36:16;;;;;;;4.68;2.28;;;25.70;86.10;;;;;;5082309;28;20396;-82
2023/06/16 11:38:51;;;;;;;5.68;2.10;;;25.80;86.50;;;;;;5084124;28;20428;-82
2023/06/16 11:41:23;;;;;;;4.70;2.03;;;25.70;82.30;;;;;;5081241;28;20477;-82
2023/06/16 11:43:51;;;;;;;3.70;2.00;;;25.60;84.80;;;;;;5096536;28;20518;-82
2023/06/16 11:46:21;;;;;;;5.97;2.08;;;25.70;85.00;;;;;;5077259;28;20036;-81
2023/06/16 11:48:48;;;;;;;4.60;2.20;;;25.60;84.20;;;;;;5109193;28;20043;-81
2023/06/16 11:51:15;;;;;;;6.75;2.10;;;25.90;85.10;;;;;;5095033;28;20397;-82
2023/06/16 11:53:43;;;;;;;4.63;2.10;;;26.20;84.00;;;;;;5088324;28;20093;-82
2023/06/16 11:56:14;;;;;;;7.07;2.00;;;26.10;83.10;;;;;;5094923;28;20048;-82
2023/06/16 11:58:43;;;;;;;3.50;2.00;;;26.00;79.80;;;;;;5079315;28;20040;-81
2023/06/16 12:01:14;;;;;;;4.05;1.90;;;25.90;82.80;;;;;;5131723;28;20043;-82
2023/06/16 12:03:41;;;;;;;5.50;2.08;;;25.80;82.70;;;;;;5115602;28;20085;-82
2023/06/16 12:06:10;;;;;;;4.30;2.10;;;25.70;82.00;;;;;;5132201;28;20407;-82
2023/06/16 12:08:41;;;;;;;3.67;1.88;;;25.80;80.40;;;;;;5115821;28;20131;-81
2023/06/16 12:11:16;;;;;;;4.70;2.00;;;25.90;81.40;;;;;;5115514;28;20399;-82
2023/06/16 12:13:43;;;;;;;3.63;2.28;;;25.90;80.70;;;;;;5132265;28;20503;-82
2023/06/16 12:16:12;;;;;;;3.97;1.92;;;25.90;81.00;;;;;;5108237;28;20036;-81
2023/06/16 12:18:38;;;;;;;3.65;2.00;;;26.10;80.80;;;;;;5126359;28;20028;-82
2023/06/16 12:21:19;;;;;;;3.55;2.05;;;26.10;80.40;;;;;;5086551;28;20495;-82
2023/06/16 12:23:53;;;;;;;4.75;2.10;;;26.00;76.70;;;;;;5133670;28;20043;-81
2023/06/16 12:26:32;;;;;;;4.32;2.17;;;26.20;77.70;;;;;;5110054;28;20043;-81
2023/06/16 12:29:07;;;;;;;3.85;2.05;;;26.10;77.30;;;;;;5126608;28;20043;-82
2023/06/16 12:31:34;;;;;;;3.53;2.10;;;26.20;78.30;;;;;;5132120;28;20044;-82
2023/06/16 12:34:01;;;;;;;7.10;2.20;;;26.20;78.00;;;;;;5115243;28;20031;-82
2023/06/16 12:36:28;;;;;;;5.15;1.92;;;26.20;77.20;;;;;;5096354;28;20051;-81
2023/06/16 12:38:56;;;;;;;4.47;2.20;;;26.10;76.90;;;;;;5114924;28;20039;-81
2023/06/16 12:41:25;;;;;;;5.30;2.10;;;26.30;77.20;;;;;;5104056;28;20036;-82
2023/06/16 12:43:52;;;;;;;3.85;1.90;;;26.20;75.90;;;;;;5101346;28;20039;-82
2023/06/16 12:46:20;;;;;;;3.40;1.88;;;26.30;76.60;;;;;;5119704;28;20047;-82
2023/06/16 12:48:47;;;;;;;4.80;1.90;;;26.30;76.90;;;;;;5121164;28;20036;-82